createdAt,value
2022-12-09T00:00:39.673Z,97761.66
2022-12-09T00:01:49.831Z,97761.63
2022-12-09T00:02:52.197Z,97764.45
2022-12-09T00:03:55.500Z,97763.61
2022-12-09T00:04:57.566Z,97761.80
2022-12-09T00:05:59.720Z,97765.52
2022-12-09T00:07:01.718Z,97764.91
2022-12-09T00:08:03.867Z,97762.13
2022-12-09T00:09:06.265Z,97763.69
2022-12-09T00:10:08.984Z,97763.86
2022-12-09T00:11:11.588Z,97767.33
2022-12-09T00:12:13.364Z,97765.52
2022-12-09T00:13:15.323Z,97765.70
2022-12-09T00:14:17.106Z,97763.20
2022-12-09T00:15:18.839Z,97766.15
2022-12-09T00:16:22.860Z,97768.34
2022-12-09T00:17:24.985Z,97766.55
2022-12-09T00:18:26.908Z,97766.77
2022-12-09T00:19:28.736Z,97767.70
2022-12-09T00:20:30.631Z,97768.67
2022-12-09T00:21:34.216Z,97770.25
2022-12-09T00:22:35.962Z,97773.64
2022-12-09T00:23:37.716Z,97769.41
2022-12-09T00:24:39.551Z,97770.81
2022-12-09T00:25:41.363Z,97772.85
2022-12-09T00:26:43.468Z,97774.25
2022-12-09T00:27:45.384Z,97772.31
2022-12-09T00:28:50.438Z,97770.44
2022-12-09T00:29:52.294Z,97769.94
2022-12-09T00:30:54.150Z,97772.01
2022-12-09T00:31:56.221Z,97775.70
2022-12-09T00:32:58.849Z,97777.94
2022-12-09T00:34:04.486Z,97780.20
2022-12-09T00:35:06.583Z,97782.35
2022-12-09T00:36:13.117Z,97782.66
2022-12-09T00:37:14.985Z,97786.85
2022-12-09T00:38:16.720Z,97785.67
2022-12-09T00:39:19.408Z,97789.59
2022-12-09T00:40:21.743Z,97783.52
2022-12-09T00:41:24.908Z,97782.77
2022-12-09T00:42:26.804Z,97785.39
2022-12-09T00:43:28.844Z,97783.21
2022-12-09T00:44:30.997Z,97786.80
2022-12-09T00:45:32.775Z,97786.64
2022-12-09T00:46:34.800Z,97790.11
2022-12-09T00:47:36.965Z,97789.91
2022-12-09T00:48:39.699Z,97790.89
2022-12-09T00:49:41.710Z,97788.91
2022-12-09T00:50:46.157Z,97786.55
2022-12-09T00:51:48.311Z,97788.10
2022-12-09T00:52:50.246Z,97788.46
2022-12-09T00:53:54.950Z,97791.35
2022-12-09T00:54:57.276Z,97787.60
2022-12-09T00:56:00.290Z,97790.84
2022-12-09T00:57:02.404Z,97790.35
2022-12-09T00:58:04.988Z,97793.45
2022-12-09T00:59:06.730Z,97791.28
2022-12-09T01:00:10.131Z,97788.32
2022-12-09T01:01:12.479Z,97789.47
2022-12-09T01:02:14.900Z,97786.87
2022-12-09T01:03:18.777Z,97786.77
2022-12-09T01:04:20.891Z,97785.79
2022-12-09T01:05:22.767Z,97783.41
2022-12-09T01:06:26.855Z,97780.20
2022-12-09T01:07:29.016Z,97781.91
2022-12-09T01:08:30.990Z,97780.72
2022-12-09T01:09:34.871Z,97781.45
2022-12-09T01:10:39.563Z,97782.52
2022-12-09T01:11:41.661Z,97779.08
2022-12-09T01:12:44.053Z,97784.20
2022-12-09T01:13:48.347Z,97784.64
2022-12-09T01:14:50.149Z,97783.63
2022-12-09T01:15:52.055Z,97787.59
2022-12-09T01:16:54.212Z,97785.71
2022-12-09T01:17:56.957Z,97787.03
2022-12-09T01:19:02.663Z,97789.57
2022-12-09T01:20:09.683Z,97786.77
2022-12-09T01:21:12.198Z,97785.09
2022-12-09T01:22:15.456Z,97782.42
2022-12-09T01:23:17.413Z,97782.67
2022-12-09T01:24:20.446Z,97780.33
2022-12-09T01:25:29.060Z,97776.98
2022-12-09T01:26:31.156Z,97774.07
2022-12-09T01:27:33.232Z,97771.55
2022-12-09T01:28:37.704Z,97771.80
2022-12-09T01:29:39.534Z,97771.88
2022-12-09T01:30:41.407Z,97770.90
2022-12-09T01:31:43.597Z,97771.88
2022-12-09T01:32:47.019Z,97773.33
2022-12-09T01:33:49.229Z,97771.02
2022-12-09T01:34:51.794Z,97769.29
2022-12-09T01:35:54.999Z,97769.73
2022-12-09T01:36:56.870Z,97769.96
2022-12-09T01:37:58.662Z,97771.94
2022-12-09T01:39:01.341Z,97767.88
2022-12-09T01:40:09.454Z,97770.14
2022-12-09T01:41:11.851Z,97766.24
2022-12-09T01:42:21.034Z,97769.43
2022-12-09T01:43:22.892Z,97769.96
2022-12-09T01:44:26.617Z,97768.17
2022-12-09T01:45:31.864Z,97767.96
2022-12-09T01:46:34.018Z,97767.08
2022-12-09T01:47:36.766Z,97769.55
2022-12-09T01:48:43.584Z,97769.85
2022-12-09T01:49:48.305Z,97767.42
2022-12-09T01:50:59.024Z,97768.52
2022-12-09T01:52:18.007Z,97770.43
2022-12-09T01:53:25.734Z,97772.15
2022-12-09T01:54:28.275Z,97770.95
2022-12-09T01:55:30.318Z,97774.20
2022-12-09T01:56:36.017Z,97771.34
2022-12-09T01:57:39.180Z,97771.98
2022-12-09T01:58:41.771Z,97770.71
2022-12-09T01:59:45.940Z,97775.67
2022-12-09T02:00:48.735Z,97776.52
2022-12-09T02:01:57.374Z,97775.45
2022-12-09T02:03:01.131Z,97773.11
2022-12-09T02:04:04.047Z,97777.92
2022-12-09T02:05:07.481Z,97775.50
2022-12-09T02:06:10.549Z,97774.65
2022-12-09T02:07:12.418Z,97775.59
2022-12-09T02:08:17.394Z,97773.35
2022-12-09T02:09:20.756Z,97771.59
2022-12-09T02:10:23.309Z,97777.71
2022-12-09T02:12:10.022Z,97773.27
2022-12-09T02:13:23.617Z,97766.61
2022-12-09T02:14:39.481Z,97765.23
2022-12-09T02:15:55.319Z,97764.61
2022-12-09T02:17:32.950Z,97766.55
2022-12-09T02:18:46.163Z,97765.05
2022-12-09T02:20:04.224Z,97767.65
2022-12-09T02:21:14.439Z,97768.48
2022-12-09T02:22:23.416Z,97769.55
2022-12-09T02:23:39.970Z,97769.76
2022-12-09T02:24:59.126Z,97770.54
2022-12-09T02:26:27.333Z,97771.45
2022-12-09T02:27:55.567Z,97769.08
2022-12-09T02:29:36.232Z,97767.44
2022-12-09T02:31:07.500Z,97763.32
2022-12-09T02:32:38.434Z,97770.80
2022-12-09T02:33:53.278Z,97767.96
2022-12-09T02:35:25.213Z,97768.28
2022-12-09T02:36:36.374Z,97765.95
2022-12-09T02:38:06.929Z,97765.65
2022-12-09T02:39:10.528Z,97764.30
2022-12-09T02:40:21.935Z,97765.06
2022-12-09T02:41:28.710Z,97765.27
2022-12-09T02:42:36.650Z,97767.24
2022-12-09T02:43:49.647Z,97766.80
2022-12-09T02:44:53.979Z,97767.54
2022-12-09T02:46:00.378Z,97766.46
2022-12-09T02:47:08.340Z,97767.63
2022-12-09T02:48:16.552Z,97764.23
2022-12-09T02:49:25.180Z,97761.62
2022-12-09T02:50:34.015Z,97762.48
2022-12-09T02:51:42.382Z,97766.63
2022-12-09T02:52:47.834Z,97763.65
2022-12-09T02:53:58.465Z,97767.20
2022-12-09T02:55:07.139Z,97767.42
2022-12-09T02:56:10.163Z,97767.02
2022-12-09T02:57:19.398Z,97765.27
2022-12-09T02:58:21.312Z,97762.21
2022-12-09T02:59:23.376Z,97762.41
2022-12-09T03:00:27.260Z,97763.49
2022-12-09T03:01:45.661Z,97763.64
2022-12-09T03:02:53.645Z,97759.59
2022-12-09T03:03:56.020Z,97757.91
2022-12-09T03:05:13.678Z,97756.54
2022-12-09T03:06:19.995Z,97755.89
2022-12-09T03:08:08.056Z,97754.17
2022-12-09T03:09:18.617Z,97754.84
2022-12-09T03:10:54.164Z,97752.54
2022-12-09T03:12:05.113Z,97754.23
2022-12-09T03:13:26.119Z,97756.23
2022-12-09T03:14:37.980Z,97756.04
2022-12-09T03:15:49.983Z,97753.73
2022-12-09T03:17:06.402Z,97756.98
2022-12-09T03:18:15.950Z,97755.98
2022-12-09T03:19:47.827Z,97748.64
2022-12-09T03:20:51.293Z,97750.62
2022-12-09T03:21:58.560Z,97754.75
2022-12-09T03:23:05.735Z,97747.84
2022-12-09T03:24:13.356Z,97747.71
2022-12-09T03:25:24.184Z,97748.16
2022-12-09T03:26:33.875Z,97747.45
2022-12-09T03:28:02.031Z,97748.55
2022-12-09T03:29:12.168Z,97748.08
2022-12-09T03:30:15.295Z,97748.78
2022-12-09T03:31:21.844Z,97745.17
2022-12-09T03:32:28.327Z,97747.29
2022-12-09T03:33:32.405Z,97743.17
2022-12-09T03:34:42.406Z,97746.45
2022-12-09T03:35:52.998Z,97746.55
2022-12-09T03:36:58.380Z,97744.70
2022-12-09T03:38:06.097Z,97740.80
2022-12-09T03:39:14.345Z,97740.76
2022-12-09T03:40:24.286Z,97738.37
2022-12-09T03:41:31.478Z,97736.42
2022-12-09T03:42:46.190Z,97738.88
2022-12-09T03:43:58.622Z,97736.88
2022-12-09T03:45:09.555Z,97736.34
2022-12-09T03:46:11.592Z,97733.48
2022-12-09T03:47:13.689Z,97736.80
2022-12-09T03:48:16.034Z,97732.52
2022-12-09T03:49:18.994Z,97733.08
2022-12-09T03:50:27.367Z,97734.86
2022-12-09T03:51:38.224Z,97733.41
2022-12-09T03:52:53.428Z,97731.95
2022-12-09T03:54:17.315Z,97730.80
2022-12-09T03:55:19.858Z,97729.67
2022-12-09T03:56:31.742Z,97725.89
2022-12-09T03:57:40.519Z,97730.95
2022-12-09T03:58:48.159Z,97727.00
2022-12-09T04:00:01.611Z,97729.95
2022-12-09T04:01:04.314Z,97726.00
2022-12-09T04:02:07.636Z,97727.58
2022-12-09T04:03:14.750Z,97724.94
2022-12-09T04:04:17.473Z,97727.34
2022-12-09T04:05:20.986Z,97727.88
2022-12-09T04:06:24.718Z,97724.33
2022-12-09T04:07:26.605Z,97724.29
2022-12-09T04:08:28.390Z,97729.71
2022-12-09T04:09:30.771Z,97728.91
2022-12-09T04:10:32.647Z,97729.85
2022-12-09T04:11:35.027Z,97729.02
2022-12-09T04:12:36.874Z,97730.41
2022-12-09T04:13:38.902Z,97726.05
2022-12-09T04:14:40.902Z,97726.67
2022-12-09T04:15:43.008Z,97719.48
2022-12-09T04:16:45.376Z,97726.05
2022-12-09T04:17:47.631Z,97727.94
2022-12-09T04:18:49.852Z,97725.52
2022-12-09T04:19:51.772Z,97722.86
2022-12-09T04:20:53.665Z,97723.54
2022-12-09T04:21:55.473Z,97720.84
2022-12-09T04:22:57.295Z,97724.69
2022-12-09T04:23:59.635Z,97723.46
2022-12-09T04:25:01.474Z,97724.55
2022-12-09T04:26:03.827Z,97727.09
2022-12-09T04:27:05.733Z,97726.57
2022-12-09T04:28:07.610Z,97725.91
2022-12-09T04:29:11.533Z,97725.80
2022-12-09T04:30:13.857Z,97726.03
2022-12-09T04:31:18.344Z,97722.73
2022-12-09T04:32:20.993Z,97720.50
2022-12-09T04:33:23.008Z,97719.38
2022-12-09T04:34:24.799Z,97716.89
2022-12-09T04:35:27.734Z,97720.11
2022-12-09T04:36:30.377Z,97720.60
2022-12-09T04:37:33.334Z,97720.45
2022-12-09T04:38:35.400Z,97721.00
2022-12-09T04:39:37.408Z,97723.24
2022-12-09T04:40:39.680Z,97723.87
2022-12-09T04:41:41.503Z,97727.42
2022-12-09T04:42:43.577Z,97727.67
2022-12-09T04:43:45.765Z,97729.23
2022-12-09T04:44:47.550Z,97731.66
2022-12-09T04:45:49.404Z,97731.91
2022-12-09T04:46:51.366Z,97728.45
2022-12-09T04:47:53.445Z,97729.88
2022-12-09T04:48:55.648Z,97731.43
2022-12-09T04:49:57.791Z,97730.71
2022-12-09T04:51:00.038Z,97726.86
2022-12-09T04:52:02.013Z,97730.09
2022-12-09T04:53:04.426Z,97725.64
2022-12-09T04:54:06.628Z,97728.75
2022-12-09T04:55:09.937Z,97729.15
2022-12-09T04:56:14.787Z,97729.64
2022-12-09T04:57:17.625Z,97731.19
2022-12-09T04:58:19.580Z,97725.05
2022-12-09T04:59:21.636Z,97725.52
2022-12-09T05:00:24.267Z,97722.46
2022-12-09T05:01:30.694Z,97725.06
2022-12-09T05:02:33.998Z,97729.71
2022-12-09T05:03:36.884Z,97727.55
2022-12-09T05:04:39.372Z,97729.28
2022-12-09T05:05:41.722Z,97730.38
2022-12-09T05:06:44.070Z,97731.34
2022-12-09T05:07:46.987Z,97732.78
2022-12-09T05:08:50.030Z,97734.19
2022-12-09T05:09:52.308Z,97738.97
2022-12-09T05:10:54.584Z,97737.27
2022-12-09T05:11:59.880Z,97740.90
2022-12-09T05:13:02.202Z,97742.57
2022-12-09T05:14:04.342Z,97740.60
2022-12-09T05:15:07.046Z,97743.56
2022-12-09T05:16:16.366Z,97744.70
2022-12-09T05:17:19.134Z,97745.20
2022-12-09T05:18:21.540Z,97745.87
2022-12-09T05:19:23.771Z,97744.60
2022-12-09T05:20:29.796Z,97741.58
2022-12-09T05:21:31.970Z,97738.66
2022-12-09T05:22:34.139Z,97743.29
2022-12-09T05:23:37.036Z,97744.96
2022-12-09T05:24:41.107Z,97743.34
2022-12-09T05:25:43.353Z,97743.05
2022-12-09T05:26:45.246Z,97747.65
2022-12-09T05:27:47.198Z,97745.73
2022-12-09T05:28:50.694Z,97747.71
2022-12-09T05:29:53.150Z,97748.67
2022-12-09T05:30:59.758Z,97750.95
2022-12-09T05:32:01.715Z,97750.42
2022-12-09T05:33:05.202Z,97752.07
2022-12-09T05:34:07.716Z,97747.35
2022-12-09T05:35:09.785Z,97748.93
2022-12-09T05:36:14.493Z,97753.20
2022-12-09T05:37:16.632Z,97749.97
2022-12-09T05:38:18.488Z,97753.87
2022-12-09T05:39:20.432Z,97753.78
2022-12-09T05:40:22.400Z,97752.30
2022-12-09T05:41:25.219Z,97751.95
2022-12-09T05:42:27.572Z,97752.66
2022-12-09T05:43:29.720Z,97748.91
2022-12-09T05:44:31.739Z,97749.90
2022-12-09T05:45:33.537Z,97751.14
2022-12-09T05:46:35.560Z,97749.58
2022-12-09T05:47:38.133Z,97751.82
2022-12-09T05:48:40.969Z,97750.73
2022-12-09T05:49:43.379Z,97751.29
2022-12-09T05:50:45.605Z,97748.63
2022-12-09T05:51:47.845Z,97745.47
2022-12-09T05:52:49.608Z,97747.30
2022-12-09T05:53:52.437Z,97747.43
2022-12-09T05:54:54.826Z,97748.38
2022-12-09T05:55:57.468Z,97750.36
2022-12-09T05:57:01.475Z,97747.09
2022-12-09T05:58:03.407Z,97751.67
2022-12-09T05:59:05.532Z,97747.95
2022-12-09T06:00:08.714Z,97748.27
2022-12-09T06:01:16.752Z,97745.85
2022-12-09T06:02:18.976Z,97745.48
2022-12-09T06:03:20.939Z,97750.45
2022-12-09T06:04:23.663Z,97745.95
2022-12-09T06:05:25.813Z,97751.11
2022-12-09T06:06:30.248Z,97753.17
2022-12-09T06:07:34.810Z,97753.02
2022-12-09T06:08:37.318Z,97755.40
2022-12-09T06:09:39.553Z,97756.05
2022-12-09T06:10:42.402Z,97757.08
2022-12-09T06:11:44.381Z,97762.00
2022-12-09T06:12:46.604Z,97762.42
2022-12-09T06:13:49.708Z,97761.12
2022-12-09T06:14:52.686Z,97757.67
2022-12-09T06:15:54.815Z,97758.20
2022-12-09T06:16:57.314Z,97757.96
2022-12-09T06:17:59.633Z,97756.83
2022-12-09T06:19:02.116Z,97754.69
2022-12-09T06:20:05.251Z,97756.15
2022-12-09T06:21:10.813Z,97752.43
2022-12-09T06:22:12.800Z,97761.88
2022-12-09T06:23:14.873Z,97757.27
2022-12-09T06:24:17.222Z,97758.33
2022-12-09T06:25:19.275Z,97759.86
2022-12-09T06:26:27.567Z,97757.50
2022-12-09T06:27:29.808Z,97759.75
2022-12-09T06:28:32.054Z,97756.98
2022-12-09T06:29:34.275Z,97757.30
2022-12-09T06:30:36.665Z,97755.83
2022-12-09T06:31:38.725Z,97757.83
2022-12-09T06:32:40.843Z,97753.61
2022-12-09T06:33:59.576Z,97754.00
2022-12-09T06:35:02.226Z,97756.92
2022-12-09T06:36:05.998Z,97757.15
2022-12-09T06:37:08.127Z,97756.27
2022-12-09T06:38:10.323Z,97755.04
2022-12-09T06:39:13.727Z,97755.23
2022-12-09T06:40:15.797Z,97754.73
2022-12-09T06:41:17.971Z,97759.99
2022-12-09T06:42:20.140Z,97755.63
2022-12-09T06:43:22.996Z,97754.80
2022-12-09T06:44:25.726Z,97758.77
2022-12-09T06:45:27.601Z,97756.06
2022-12-09T06:46:29.740Z,97758.78
2022-12-09T06:47:32.009Z,97758.91
2022-12-09T06:48:34.012Z,97756.89
2022-12-09T06:49:36.172Z,97758.55
2022-12-09T06:50:38.529Z,97760.54
2022-12-09T06:51:40.583Z,97756.94
2022-12-09T06:52:42.819Z,97762.64
2022-12-09T06:53:46.861Z,97758.58
2022-12-09T06:54:48.782Z,97760.83
2022-12-09T06:55:50.725Z,97761.39
2022-12-09T06:56:52.648Z,97763.15
2022-12-09T06:57:54.579Z,97765.91
2022-12-09T06:58:56.751Z,97762.86
2022-12-09T06:59:59.343Z,97765.98
2022-12-09T07:01:13.765Z,97766.92
2022-12-09T07:02:16.061Z,97767.02
2022-12-09T07:03:18.215Z,97769.06
2022-12-09T07:04:20.546Z,97769.62
2022-12-09T07:05:24.296Z,97766.04
2022-12-09T07:06:29.567Z,97766.48
2022-12-09T07:07:32.377Z,97762.11
2022-12-09T07:08:34.934Z,97761.95
2022-12-09T07:09:37.011Z,97762.79
2022-12-09T07:10:40.059Z,97762.19
2022-12-09T07:11:43.232Z,97765.21
2022-12-09T07:12:45.234Z,97764.91
2022-12-09T07:13:47.283Z,97764.40
2022-12-09T07:14:49.751Z,97765.79
2022-12-09T07:15:51.655Z,97763.30
2022-12-09T07:16:53.889Z,97765.63
2022-12-09T07:17:56.336Z,97766.75
2022-12-09T07:18:59.364Z,97767.02
2022-12-09T07:20:06.621Z,97764.05
2022-12-09T07:21:14.515Z,97763.91
2022-12-09T07:22:16.659Z,97766.97
2022-12-09T07:23:18.480Z,97766.14
2022-12-09T07:24:20.601Z,97765.53
2022-12-09T07:25:23.349Z,97770.52
2022-12-09T07:26:25.188Z,97764.36
2022-12-09T07:27:27.507Z,97769.92
2022-12-09T07:28:29.375Z,97768.48
2022-12-09T07:29:33.046Z,97767.48
2022-12-09T07:30:37.988Z,97768.95
2022-12-09T07:31:39.919Z,97768.83
2022-12-09T07:32:42.857Z,97771.20
2022-12-09T07:33:45.285Z,97776.64
2022-12-09T07:34:47.333Z,97775.64
2022-12-09T07:35:49.558Z,97773.80
2022-12-09T07:36:51.405Z,97773.88
2022-12-09T07:37:55.388Z,97775.67
2022-12-09T07:39:26.335Z,97774.58
2022-12-09T07:40:28.221Z,97774.34
2022-12-09T07:41:31.054Z,97772.30
2022-12-09T07:42:33.079Z,97775.84
2022-12-09T07:43:38.098Z,97770.23
2022-12-09T07:44:40.640Z,97771.49
2022-12-09T07:45:42.735Z,97769.55
2022-12-09T07:46:44.870Z,97767.83
2022-12-09T07:47:47.537Z,97762.86
2022-12-09T07:48:50.336Z,97762.42
2022-12-09T07:49:52.769Z,97762.34
2022-12-09T07:50:54.566Z,97760.14
2022-12-09T07:51:56.705Z,97761.80
2022-12-09T07:52:59.148Z,97759.45
2022-12-09T07:54:01.085Z,97757.19
2022-12-09T07:55:03.109Z,97759.19
2022-12-09T07:56:09.210Z,97757.09
2022-12-09T07:57:11.400Z,97755.45
2022-12-09T07:58:13.541Z,97756.03
2022-12-09T07:59:16.306Z,97757.69
2022-12-09T08:00:18.989Z,97755.39
2022-12-09T08:01:27.527Z,97758.41
2022-12-09T08:02:29.588Z,97756.60
2022-12-09T08:03:31.959Z,97757.61
2022-12-09T08:04:36.298Z,97755.77
2022-12-09T08:05:47.041Z,97762.10
2022-12-09T08:06:49.266Z,97764.91
2022-12-09T08:07:51.587Z,97759.17
2022-12-09T08:08:54.785Z,97762.14
2022-12-09T08:09:57.309Z,97761.63
2022-12-09T08:11:15.526Z,97756.45
2022-12-09T08:12:17.713Z,97758.20
2022-12-09T08:13:21.129Z,97757.01
2022-12-09T08:14:23.385Z,97752.20
2022-12-09T08:15:25.575Z,97751.52
2022-12-09T08:16:28.431Z,97745.17
2022-12-09T08:17:31.012Z,97744.77
2022-12-09T08:18:34.441Z,97747.02
2022-12-09T08:19:37.143Z,97748.15
2022-12-09T08:20:39.973Z,97750.44
2022-12-09T08:21:42.414Z,97751.86
2022-12-09T08:22:44.859Z,97753.42
2022-12-09T08:23:47.979Z,97755.34
2022-12-09T08:24:50.274Z,97753.86
2022-12-09T08:25:56.751Z,97752.59
2022-12-09T08:27:00.243Z,97757.77
2022-12-09T08:28:02.323Z,97758.84
2022-12-09T08:29:13.018Z,97755.23
2022-12-09T08:30:17.055Z,97757.84
2022-12-09T08:31:24.502Z,97761.10
2022-12-09T08:32:27.084Z,97761.61
2022-12-09T08:33:29.260Z,97759.70
2022-12-09T08:34:31.594Z,97759.80
2022-12-09T08:35:33.864Z,97758.26
2022-12-09T08:36:37.018Z,97759.45
2022-12-09T08:37:39.383Z,97762.55
2022-12-09T08:38:42.077Z,97762.58
2022-12-09T08:39:44.348Z,97762.32
2022-12-09T08:40:46.326Z,97765.09
2022-12-09T08:41:48.443Z,97765.83
2022-12-09T08:42:50.677Z,97765.85
2022-12-09T08:43:52.491Z,97765.36
2022-12-09T08:45:00.337Z,97766.42
2022-12-09T08:46:04.203Z,97766.09
2022-12-09T08:47:06.128Z,97766.09
2022-12-09T08:48:09.581Z,97771.30
2022-12-09T08:49:12.805Z,97768.75
2022-12-09T08:50:15.990Z,97769.77
2022-12-09T08:51:18.485Z,97768.23
2022-12-09T08:52:20.502Z,97770.61
2022-12-09T08:53:22.792Z,97768.27
2022-12-09T08:54:24.981Z,97768.07
2022-12-09T08:55:27.731Z,97767.92
2022-12-09T08:56:30.630Z,97768.64
2022-12-09T08:57:32.566Z,97771.52
2022-12-09T08:58:34.336Z,97768.73
2022-12-09T08:59:41.847Z,97769.72
2022-12-09T09:00:46.784Z,97771.06
2022-12-09T09:01:49.534Z,97771.25
2022-12-09T09:02:52.123Z,97771.13
2022-12-09T09:03:54.135Z,97774.26
2022-12-09T09:04:57.577Z,97767.31
2022-12-09T09:06:09.726Z,97768.48
2022-12-09T09:07:13.947Z,97766.41
2022-12-09T09:08:15.932Z,97767.58
2022-12-09T09:09:20.541Z,97767.20
2022-12-09T09:10:22.532Z,97766.81
2022-12-09T09:11:26.063Z,97766.98
2022-12-09T09:12:28.564Z,97767.02
2022-12-09T09:13:30.714Z,97768.89
2022-12-09T09:14:32.914Z,97766.52
2022-12-09T09:15:35.082Z,97766.21
2022-12-09T09:16:41.196Z,97765.27
2022-12-09T09:17:49.803Z,97768.98
2022-12-09T09:18:54.425Z,97766.98
2022-12-09T09:19:56.732Z,97766.34
2022-12-09T09:20:59.614Z,97763.02
2022-12-09T09:22:02.035Z,97763.15
2022-12-09T09:23:04.449Z,97766.16
2022-12-09T09:24:11.652Z,97768.61
2022-12-09T09:25:14.552Z,97765.11
2022-12-09T09:26:20.066Z,97767.42
2022-12-09T09:27:22.373Z,97767.11
2022-12-09T09:28:29.098Z,97766.44
2022-12-09T09:29:34.213Z,97766.58
2022-12-09T09:30:37.753Z,97766.71
2022-12-09T09:31:40.873Z,97766.83
2022-12-09T09:32:43.036Z,97769.20
2022-12-09T09:33:45.559Z,97766.50
2022-12-09T09:34:50.646Z,97770.26
2022-12-09T09:36:05.528Z,97767.66
2022-12-09T09:37:10.280Z,97773.39
2022-12-09T09:38:12.047Z,97770.36
2022-12-09T09:39:14.055Z,97772.41
2022-12-09T09:40:16.808Z,97771.27
2022-12-09T09:41:45.646Z,97773.02
2022-12-09T09:42:51.657Z,97768.05
2022-12-09T09:43:56.601Z,97770.07
2022-12-09T09:45:03.126Z,97769.31
2022-12-09T09:46:06.259Z,97769.38
2022-12-09T09:47:37.861Z,97772.11
2022-12-09T09:48:40.840Z,97767.89
2022-12-09T09:49:52.538Z,97766.17
2022-12-09T09:51:12.439Z,97769.05
2022-12-09T09:52:19.192Z,97770.00
2022-12-09T09:53:27.603Z,97766.92
2022-12-09T09:54:29.886Z,97766.42
2022-12-09T09:55:42.427Z,97766.35
2022-12-09T09:57:03.646Z,97767.33
2022-12-09T09:58:17.961Z,97767.46
2022-12-09T09:59:32.839Z,97768.48
2022-12-09T10:00:44.496Z,97765.81
2022-12-09T10:02:02.376Z,97763.03
2022-12-09T10:03:12.902Z,97761.15
2022-12-09T10:04:24.621Z,97759.91
2022-12-09T10:05:34.459Z,97759.41
2022-12-09T10:06:52.112Z,97759.04
2022-12-09T10:08:17.928Z,97760.38
2022-12-09T10:09:32.179Z,97758.96
2022-12-09T10:10:43.664Z,97760.93
2022-12-09T10:12:03.766Z,97764.71
2022-12-09T10:13:26.495Z,97763.95
2022-12-09T10:14:42.047Z,97762.94
2022-12-09T10:16:17.721Z,97763.84
2022-12-09T10:17:35.449Z,97761.42
2022-12-09T10:19:07.775Z,97757.45
2022-12-09T10:20:18.952Z,97760.22
2022-12-09T10:21:22.641Z,97761.41
2022-12-09T10:22:30.650Z,97757.18
2022-12-09T10:23:33.050Z,97755.66
2022-12-09T10:24:40.478Z,97757.19
2022-12-09T10:25:48.939Z,97758.34
2022-12-09T10:27:16.636Z,97759.19
2022-12-09T10:28:23.152Z,97759.63
2022-12-09T10:29:45.814Z,97754.84
2022-12-09T10:30:53.477Z,97748.88
2022-12-09T10:31:56.079Z,97749.55
2022-12-09T10:32:58.126Z,97746.34
2022-12-09T10:34:00.975Z,97745.52
2022-12-09T10:35:20.910Z,97744.88
2022-12-09T10:36:32.130Z,97745.65
2022-12-09T10:37:37.550Z,97738.81
2022-12-09T10:38:41.957Z,97741.86
2022-12-09T10:39:46.558Z,97741.34
2022-12-09T10:40:57.126Z,97739.35
2022-12-09T10:43:08.923Z,97738.94
2022-12-09T10:44:23.959Z,97737.62
2022-12-09T10:45:35.697Z,97737.59
2022-12-09T10:46:56.588Z,97739.83
2022-12-09T10:47:58.813Z,97742.55
2022-12-09T10:49:04.106Z,97740.73
2022-12-09T10:50:08.556Z,97740.23
2022-12-09T10:51:15.784Z,97736.05
2022-12-09T10:52:43.158Z,97736.55
2022-12-09T10:53:53.971Z,97733.46
2022-12-09T10:54:56.619Z,97734.21
2022-12-09T10:56:01.965Z,97736.30
2022-12-09T10:57:26.617Z,97735.12
2022-12-09T10:58:31.106Z,97734.16
2022-12-09T10:59:35.368Z,97727.56
2022-12-09T11:00:38.365Z,97736.38
2022-12-09T11:02:03.766Z,97736.48
2022-12-09T11:03:26.266Z,97736.22
2022-12-09T11:04:38.472Z,97737.30
2022-12-09T11:05:43.054Z,97737.11
2022-12-09T11:06:45.797Z,97734.93
2022-12-09T11:07:50.510Z,97735.28
2022-12-09T11:09:00.121Z,97733.10
2022-12-09T11:10:02.136Z,97727.81
2022-12-09T11:11:05.157Z,97729.35
2022-12-09T11:12:34.762Z,97726.26
2022-12-09T11:13:44.128Z,97722.99
2022-12-09T11:15:20.620Z,97722.79
2022-12-09T11:16:27.956Z,97726.81
2022-12-09T11:17:34.020Z,97721.85
2022-12-09T11:18:44.299Z,97726.30
2022-12-09T11:19:52.383Z,97726.77
2022-12-09T11:21:01.110Z,97723.63
2022-12-09T11:22:39.617Z,97724.89
2022-12-09T11:23:58.858Z,97724.65
2022-12-09T11:25:31.097Z,97726.36
2022-12-09T11:26:38.382Z,97730.64
2022-12-09T11:27:56.292Z,97732.52
2022-12-09T11:29:04.560Z,97731.80
2022-12-09T11:30:30.742Z,97728.38
2022-12-09T11:31:41.121Z,97730.44
2022-12-09T11:33:15.576Z,97729.58
2022-12-09T11:34:27.392Z,97736.61
2022-12-09T11:35:44.977Z,97737.02
2022-12-09T11:36:52.507Z,97737.33
2022-12-09T11:37:54.985Z,97737.08
2022-12-09T11:39:18.315Z,97739.70
2022-12-09T11:40:20.987Z,97739.23
2022-12-09T11:41:45.553Z,97743.83
2022-12-09T11:42:53.152Z,97737.25
2022-12-09T11:43:57.240Z,97739.27
2022-12-09T11:45:19.699Z,97740.20
2022-12-09T11:46:26.163Z,97741.48
2022-12-09T11:48:21.620Z,97740.48
2022-12-09T11:49:16.906Z,97738.89
2022-12-09T11:50:25.196Z,97734.88
2022-12-09T11:51:32.995Z,97739.69
2022-12-09T11:52:34.870Z,97736.54
2022-12-09T11:53:41.011Z,97732.85
2022-12-09T11:54:54.465Z,97733.46
2022-12-09T11:56:07.905Z,97730.73
2022-12-09T11:57:30.632Z,97732.67
2022-12-09T11:58:48.263Z,97734.23
2022-12-09T11:59:59.354Z,97736.55
2022-12-09T12:01:21.137Z,97735.63
2022-12-09T12:02:25.853Z,97739.95
2022-12-09T12:03:47.907Z,97738.10
2022-12-09T12:05:21.643Z,97739.65
2022-12-09T12:06:28.008Z,97735.60
2022-12-09T12:07:37.434Z,97738.63
2022-12-09T12:08:49.772Z,97737.30
2022-12-09T12:09:58.044Z,97735.24
2022-12-09T12:11:09.316Z,97729.86
2022-12-09T12:12:37.973Z,97731.27
2022-12-09T12:13:50.075Z,97727.85
2022-12-09T12:14:51.873Z,97731.55
2022-12-09T12:16:10.477Z,97727.45
2022-12-09T12:17:24.644Z,97726.52
2022-12-09T12:18:33.076Z,97727.59
2022-12-09T12:19:39.440Z,97727.78
2022-12-09T12:21:10.186Z,97729.71
2022-12-09T12:22:33.556Z,97728.13
2022-12-09T12:23:56.880Z,97721.73
2022-12-09T12:25:27.475Z,97718.66
2022-12-09T12:26:46.004Z,97718.29
2022-12-09T12:28:25.271Z,97712.02
2022-12-09T12:29:42.091Z,97709.30
2022-12-09T12:31:22.456Z,97712.56
2022-12-09T12:34:39.633Z,97709.66
2022-12-09T12:36:18.593Z,97713.31
2022-12-09T12:37:50.528Z,97715.20
2022-12-09T12:39:21.287Z,97713.77
2022-12-09T12:40:41.930Z,97710.90
2022-12-09T12:42:23.485Z,97710.36
2022-12-09T12:44:02.965Z,97711.77
2022-12-09T12:45:48.031Z,97713.59
2022-12-09T12:47:25.307Z,97712.61
2022-12-09T12:48:42.225Z,97713.01
2022-12-09T12:50:07.577Z,97713.29
2022-12-09T12:51:30.402Z,97716.49
2022-12-09T12:52:58.764Z,97714.98
2022-12-09T12:54:31.853Z,97712.93
2022-12-09T12:55:41.959Z,97715.23
2022-12-09T12:57:04.998Z,97714.75
2022-12-09T12:58:45.930Z,97715.13
2022-12-09T13:00:16.215Z,97710.88
2022-12-09T13:01:36.270Z,97709.39
2022-12-09T13:03:09.825Z,97709.75
2022-12-09T13:04:24.555Z,97712.56
2022-12-09T13:05:33.985Z,97714.95
2022-12-09T13:07:13.938Z,97712.40
2022-12-09T13:08:37.613Z,97708.46
2022-12-09T13:09:55.062Z,97706.80
2022-12-09T13:11:04.540Z,97710.23
2022-12-09T13:12:42.782Z,97705.83
2022-12-09T13:13:59.079Z,97705.52
2022-12-09T13:15:02.740Z,97702.61
2022-12-09T13:16:28.747Z,97705.90